09:58
Airports
History
Links
Donate
Help keep this website running!
PayPal
Bitcoin
This page is community maintained. The information is intended for PC simulator navigation or reference.
Always use approved charts for navigation.
LIMP
PARMA
PARMA (LIMP)
Parma, Emilia-Romagna, Italy (43126)
(C)
Lat/Lng:44° 49' 36.39" N / 10° 17' 49.59" E
44.826774 / 10.297108
Elevation:161'ft / 49mMSL
ID / ICAO:LIMP
Runways:1
Longest:02-20
Asphalt 2,124m / 6,969ft
Controlled:Yes
Nearby Weather08:55 GMT 2017-11-18
Nearby weather at LIMS, PIACENZA located 28.8 nautical miles from LIMP
Altimeter: 30.06
Visibility: 6.2 statute miles
Wind: 4 knots (from 270°)
Temp: 8°c / 46°f
Humidity: 100.0%

METAR: LIMS 180855Z 27004KT CAVOK 08/08 Q1018

(Powered by phpweather)
Airport Radio Frequencies
Tower: 118.45
Approach: 126.55
Nearby VORs <50NM
Nearby NDBs
Runway 02 / 20
Dimensions:2124.3 x 45.1m 6969' x 148'ft
Surface:Asphalt
Edge Lights:Medium intensity
Runway 02 [A]Runway 20 [B]
Heading:017°TH 197°TH
Lat:
Lng:
44° 49' 3.56"N
10° 17' 35.26"E
44° 50' 9.21"N
10° 18' 3.91"E
ALS:ALSF-I
User Notes and Comments
44° 49' 36.39" N / 10° 17' 49.59" E
Distance To
Airport ID:
Nearby Airports
(U) REGGIO EMILIA 20.1 NM
LIDE ESE 116°
(U) Cremona Migliaro 27.6 NM
LILR NNW 328°
(U) Carpi Budrione 28.2 NM
LIDU E 88°
(R) Modena Marzaglia 28.8 NM
LIPM ESE 117°
(C) PIACENZA 28.8 NM
LIMS ( WX ) WNW 282°
4 Mantova 32.3 NM
LIDM NE 48°
(C) Montichiari 41.6 NM
LIPO N
VFR Chart
Flight Planning at SkyVector.com